Pagrindinis puslapis
METAR-TAF:

METAR-TAF

Oro uostai :

Karsas, Turkija

platuma: 40-36N, ilguma: 043-05E, Aukštis: 1775 m

Dabartinis oras

Ataskaita buvo paskelbta 1 valandą ir 14 minutes, ne 11:50 UTC
Vėjas 5 kt iš Šiaurės Rytų
Temperatūra 4°C
Drėgmė 75%
Slėgis 1019 hPa
Matomumas 10 km arba daugiau
Su prošvaistėmis ne aukštis 3500 ft
Su prošvaistėmis ne aukštis 7000 ft

METAR: LTCF 151150Z 05005KT 9999 BKN035 BKN070 04/M00 Q1019

Laikas: 16:04 (13:04 UTC)

Prognozė

Ataskaita buvo paskelbta 2 valandos ir 24 minutes, ne 10:40 UTC
Prognozė galioja nuo 15 metu 12 UTC su 15 metu 21 UTC
Vėjas 2 kt nuo kintamojo kryptimis
Matomumas 10 km arba daugiau
Su prošvaistėmis ne aukštis 3500 ft
Su prošvaistėmis ne aukštis 7000 ft
Tapsmas
nuo 15 metu 15 UTC su 15 metu 17 UTC
Matomumas: 3500 m
rūkana

TAF: LTCF 151040Z 1512/1521 VRB02KT 9999 BKN035 BKN070 BECMG 1515/1517 3500 BR

Orai ataskaitas ir orų prognozės (METAR, TAF).

turimą stotys yra geltonos ir raudonos taškus žemėlapyje.

Perkelti pele per norėdami pamatyti stoties vardą.

Tada spustelėkite, norėdami matyti oro stebėjimo ir prognozės.

Norėdami pakeisti žemėlapį: spustelėkite ant žalios mygtukų su juodo kryžiaus žemyn,; žalią mygtuką su brūkšneliu, jei norite nutolinti; arba žalių rodyklių gretimoms žemėlapius.


METAR-TAF: